KAMG

Bacon County Airport

Alma, Georgia, USA
METAR KAMG 141253Z AUTO 19007KT 7SM BKN004 25/23 A3005 RMK AO2 SLP173 T02500228
Observed Flight Rules
Aug-14 @ 12:53 UTC (51 minutes ago) Instrument Flight Rules
Wind Visibility Clouds
190° at 7 knots 7 miles
  • Broken at 400' AGL
Temperatures Readings
Current 25°C / 77°F
Dewpoint 23°C / 73°F
Humidity 89%
Altimeter 30.05" Hg
Pressure 1017.3 hPa
Elevation 59
METAR KAMG 141253Z AUTO 19007KT 7SM BKN004 25/23 A3005 RMK AO2 SLP173 T02500228
Observed Flight Rules
Aug-14 @ 12:53 UTC
(51 minutes ago)
LIFR
Wind Visibility
190° at 7 knots 7 miles
Clouds
  • Broken at 400' AGL
Temperature Dewpoint
25°C / 77°F 23°C / 73°F
Humidity Altimeter Pressure
89% 30.05" Hg 1017.3 hPa